MIA weather

Miami International Airport
Miami, Florida, United States

Public forecast

Using degrees Fahrenheit for public forecast. Weather courtesy of forecast.io.

METAR (pilot weather report)

Retrieved 2017/12/10 21:53 UTC (1 hour ago):

KMIA 102153Z 35005KT 10SM FEW032 FEW250 17/02 A3024 RMK AO2 SLP238 T01670022 $

TAF (pilot weather forecast)

Retrieved 2017/12/10 18:30 UTC (4 hours ago):

TAF KMIA 101727Z 1018/1124 34011KT P6SM FEW250 FM110200 32005KT P6SM SKC FM111400 34008KT P6SM FEW250